createdAt,value
2022-12-06T00:00:34.228Z,99.993896
2022-12-06T00:01:43.969Z,99.993896
2022-12-06T00:02:53.620Z,99.993896
2022-12-06T00:04:02.238Z,99.993896
2022-12-06T00:05:11.891Z,99.993896
2022-12-06T00:06:20.542Z,99.993896
2022-12-06T00:07:30.205Z,99.993896
2022-12-06T00:08:37.886Z,99.993896
2022-12-06T00:09:46.529Z,99.993896
2022-12-06T00:10:56.190Z,99.993896
2022-12-06T00:12:05.845Z,99.993896
2022-12-06T00:13:14.557Z,99.993896
2022-12-06T00:14:24.238Z,99.993896
2022-12-06T00:15:32.888Z,99.993896
2022-12-06T00:16:42.608Z,99.993896
2022-12-06T00:17:50.229Z,99.993896
2022-12-06T00:18:57.874Z,99.993896
2022-12-06T00:20:07.582Z,99.993896
2022-12-06T00:21:16.326Z,99.993896
2022-12-06T00:22:24.981Z,99.993896
2022-12-06T00:23:33.645Z,99.993896
2022-12-06T00:24:42.343Z,99.993896
2022-12-06T00:25:51.986Z,99.993896
2022-12-06T00:27:00.671Z,99.993896
2022-12-06T00:28:10.349Z,99.993896
2022-12-06T00:29:19.999Z,99.993896
2022-12-06T00:30:28.650Z,99.993896
2022-12-06T00:31:38.352Z,99.993896
2022-12-06T00:32:46.968Z,99.993896
2022-12-06T00:33:55.643Z,99.993896
2022-12-06T00:35:05.290Z,99.993896
2022-12-06T00:36:13.022Z,99.993896
2022-12-06T00:37:21.657Z,99.993896
2022-12-06T00:38:31.331Z,99.993896
2022-12-06T00:39:39.967Z,99.993896
2022-12-06T00:40:48.666Z,99.993896
2022-12-06T00:41:58.301Z,99.993896
2022-12-06T00:43:06.979Z,99.993896
2022-12-06T00:44:16.652Z,99.993896
2022-12-06T00:45:24.320Z,99.993896
2022-12-06T00:46:33.056Z,99.993896
2022-12-06T00:47:42.632Z,99.993896
2022-12-06T00:48:52.316Z,99.993896
2022-12-06T00:50:01.212Z,99.993896
2022-12-06T00:51:09.640Z,99.993896
2022-12-06T00:52:18.285Z,99.993896
2022-12-06T00:53:27.946Z,99.993896
2022-12-06T00:54:36.625Z,99.993896
2022-12-06T00:55:45.279Z,99.993896
2022-12-06T00:56:54.970Z,99.993896
2022-12-06T00:58:03.605Z,99.993896
2022-12-06T00:59:13.337Z,99.993896
2022-12-06T01:00:22.016Z,99.993896
2022-12-06T01:01:30.791Z,99.993896
2022-12-06T01:02:40.340Z,99.993896
2022-12-06T01:03:47.982Z,99.993896
2022-12-06T01:04:55.636Z,99.993896
2022-12-06T01:06:05.340Z,99.993896
2022-12-06T01:07:14.993Z,99.993896
2022-12-06T01:08:24.713Z,99.993896
2022-12-06T01:09:33.335Z,99.993896
2022-12-06T01:10:42.012Z,99.993896
2022-12-06T01:11:51.705Z,99.993896
2022-12-06T01:12:59.382Z,99.993896
2022-12-06T01:14:08.017Z,99.993896
2022-12-06T01:15:17.690Z,99.993896
2022-12-06T01:16:27.447Z,99.993896
2022-12-06T01:17:37.147Z,99.993896
2022-12-06T01:18:46.811Z,99.993896
2022-12-06T01:19:54.483Z,99.993896
2022-12-06T01:21:04.302Z,99.993896
2022-12-06T01:22:12.952Z,99.993896
2022-12-06T01:23:20.664Z,99.993896
2022-12-06T01:24:30.358Z,99.993896
2022-12-06T01:25:39.008Z,99.993896
2022-12-06T01:26:47.659Z,99.993896
2022-12-06T01:27:56.334Z,99.993896
2022-12-06T01:29:05.035Z,99.993896
2022-12-06T01:30:14.683Z,99.993896
2022-12-06T01:31:22.397Z,99.993896
2022-12-06T01:32:30.988Z,99.993896
2022-12-06T01:33:40.660Z,99.993896
2022-12-06T01:34:50.351Z,99.993896
2022-12-06T01:35:59.011Z,99.993896
2022-12-06T01:37:08.677Z,99.993896
2022-12-06T01:38:18.324Z,99.993896
2022-12-06T01:39:28.002Z,99.993896
2022-12-06T01:40:35.741Z,99.993896
2022-12-06T01:41:45.337Z,99.993896
2022-12-06T01:42:53.987Z,99.993896
2022-12-06T01:44:02.642Z,99.993896
2022-12-06T01:45:11.340Z,99.993896
2022-12-06T01:46:21.009Z,99.993896
2022-12-06T01:47:29.658Z,99.993896
2022-12-06T01:48:39.327Z,99.993896
2022-12-06T01:49:46.977Z,99.993896
2022-12-06T01:50:54.662Z,99.993896
2022-12-06T01:52:04.350Z,99.993896
2022-12-06T01:53:12.993Z,99.993896
2022-12-06T01:54:22.635Z,99.993896
2022-12-06T01:55:33.280Z,99.993896
2022-12-06T01:56:41.938Z,99.993896
2022-12-06T01:57:51.608Z,99.993896
2022-12-06T01:59:00.262Z,99.993896
2022-12-06T02:00:09.913Z,99.993896
2022-12-06T02:01:17.673Z,99.993896
2022-12-06T02:02:26.296Z,99.993896
2022-12-06T02:03:36.914Z,99.993896
2022-12-06T02:04:45.577Z,99.993896
2022-12-06T02:05:54.239Z,99.993896
2022-12-06T02:07:02.900Z,99.993896
2022-12-06T02:08:12.616Z,99.993896
2022-12-06T02:09:22.248Z,99.993896
2022-12-06T02:10:30.907Z,99.993896
2022-12-06T02:11:39.575Z,99.993896
2022-12-06T02:12:49.257Z,99.993896
2022-12-06T02:13:57.902Z,99.993896
2022-12-06T02:15:06.589Z,99.993896
2022-12-06T02:16:16.326Z,99.993896
2022-12-06T02:17:24.913Z,99.993896
2022-12-06T02:18:34.559Z,99.993896
2022-12-06T02:19:43.223Z,99.993896
2022-12-06T02:20:51.905Z,99.993896
2022-12-06T02:22:01.557Z,99.993896
2022-12-06T02:23:11.232Z,99.993896
2022-12-06T02:24:19.908Z,99.993896
2022-12-06T02:25:33.745Z,99.993896
2022-12-06T02:26:38.278Z,99.993896
2022-12-06T02:27:47.948Z,99.993896
2022-12-06T02:28:56.610Z,99.993896
2022-12-06T02:30:05.297Z,99.993896
2022-12-06T02:31:14.992Z,99.993896
2022-12-06T02:32:23.612Z,99.993896
2022-12-06T02:33:33.313Z,99.993896
2022-12-06T02:34:42.942Z,99.993896
2022-12-06T02:35:52.598Z,99.993896
2022-12-06T02:37:02.285Z,99.993896
2022-12-06T02:38:13.119Z,99.993896
2022-12-06T02:39:19.621Z,99.993896
2022-12-06T02:40:29.288Z,99.993896
2022-12-06T02:41:37.938Z,99.993896
2022-12-06T02:42:46.620Z,99.993896
2022-12-06T02:43:55.292Z,99.993896
2022-12-06T02:45:04.949Z,99.993896
2022-12-06T02:46:13.666Z,99.993896
2022-12-06T02:47:21.289Z,99.993896
2022-12-06T02:48:29.962Z,99.993896
2022-12-06T02:49:39.707Z,99.993896
2022-12-06T02:50:49.347Z,99.993896
2022-12-06T02:51:59.009Z,99.993896
2022-12-06T02:53:07.678Z,99.993896
2022-12-06T02:54:16.367Z,99.993896
2022-12-06T02:55:26.054Z,99.993896
2022-12-06T02:56:33.725Z,99.993896
2022-12-06T02:57:41.375Z,99.993896
2022-12-06T02:58:51.036Z,99.993896
2022-12-06T03:00:01.011Z,99.993896
2022-12-06T03:01:09.418Z,99.993896
2022-12-06T03:02:18.112Z,99.993896
2022-12-06T03:03:27.680Z,99.993896
2022-12-06T03:04:37.360Z,99.993896
2022-12-06T03:05:46.033Z,99.993896
2022-12-06T03:06:54.681Z,99.993896
2022-12-06T03:08:04.382Z,99.993896
2022-12-06T03:09:12.981Z,99.993896
2022-12-06T03:10:22.651Z,99.993896
2022-12-06T03:11:31.299Z,99.993896
2022-12-06T03:12:40.974Z,99.993896
2022-12-06T03:13:50.634Z,99.993896
2022-12-06T03:14:59.283Z,99.993896
2022-12-06T03:16:08.024Z,99.993896
2022-12-06T03:17:18.608Z,99.993896
2022-12-06T03:18:27.282Z,99.993896
2022-12-06T03:19:34.933Z,99.993896
2022-12-06T03:20:44.601Z,99.993896
2022-12-06T03:21:53.271Z,99.993896
2022-12-06T03:23:02.908Z,99.993896
2022-12-06T03:24:10.592Z,99.993896
2022-12-06T03:25:18.237Z,99.993896
2022-12-06T03:26:27.905Z,99.993896
2022-12-06T03:27:37.568Z,99.993896
2022-12-06T03:28:46.226Z,99.993896
2022-12-06T03:29:54.916Z,99.993896
2022-12-06T03:31:04.653Z,99.993896
2022-12-06T03:32:14.235Z,99.993896
2022-12-06T03:33:22.897Z,99.993896
2022-12-06T03:34:31.548Z,99.993896
2022-12-06T03:35:41.229Z,99.993896
2022-12-06T03:36:49.894Z,99.993896
2022-12-06T03:37:58.566Z,99.993896
2022-12-06T03:39:08.188Z,99.993896
2022-12-06T03:40:16.854Z,99.993896
2022-12-06T03:41:26.528Z,99.993896
2022-12-06T03:42:35.212Z,99.993896
2022-12-06T03:43:43.866Z,99.993896
2022-12-06T03:44:53.529Z,99.993896
2022-12-06T03:46:02.333Z,99.993896
2022-12-06T03:47:11.902Z,99.993896
2022-12-06T03:48:21.495Z,99.993896
2022-12-06T03:49:30.138Z,99.993896
2022-12-06T03:50:39.891Z,99.993896
2022-12-06T03:51:47.574Z,99.993896
2022-12-06T03:52:56.269Z,99.993896
2022-12-06T03:54:05.958Z,99.993896
2022-12-06T03:55:14.572Z,99.993896
2022-12-06T03:56:24.240Z,99.993896
2022-12-06T03:57:32.889Z,99.993896
2022-12-06T03:58:41.566Z,99.993896
2022-12-06T03:59:51.234Z,99.993896
2022-12-06T04:01:00.880Z,99.993896
2022-12-06T04:02:10.586Z,99.993896
2022-12-06T04:03:18.270Z,99.993896
2022-12-06T04:04:25.861Z,99.993896
2022-12-06T04:05:35.537Z,99.993896
2022-12-06T04:06:44.182Z,99.993896
2022-12-06T04:07:52.929Z,99.993896
2022-12-06T04:09:02.488Z,99.993896
2022-12-06T04:10:12.182Z,99.993896
2022-12-06T04:11:21.849Z,99.993896
2022-12-06T04:12:29.521Z,99.993896
2022-12-06T04:13:37.186Z,99.993896
2022-12-06T04:14:46.842Z,99.993896
2022-12-06T04:15:55.583Z,99.993896
2022-12-06T04:17:04.172Z,99.993896
2022-12-06T04:18:14.322Z,99.993896
2022-12-06T04:19:22.520Z,99.993896
2022-12-06T04:20:32.187Z,99.993896
2022-12-06T04:21:40.847Z,99.993896
2022-12-06T04:22:50.512Z,99.993896
2022-12-06T04:23:59.168Z,99.993896
2022-12-06T04:25:08.823Z,99.993896
2022-12-06T04:26:18.536Z,99.993896
2022-12-06T04:27:27.172Z,99.993896
2022-12-06T04:28:36.834Z,99.993896
2022-12-06T04:29:45.483Z,99.993896
2022-12-06T04:30:54.153Z,99.993896
2022-12-06T04:32:03.914Z,99.993896
2022-12-06T04:33:12.521Z,99.993896
2022-12-06T04:34:22.216Z,99.993896
2022-12-06T04:35:31.970Z,99.993896
2022-12-06T04:36:41.700Z,99.993896
2022-12-06T04:37:51.389Z,99.993896
2022-12-06T04:39:00.076Z,99.993896
2022-12-06T04:40:08.732Z,99.993896
2022-12-06T04:41:18.482Z,99.993896
2022-12-06T04:42:27.160Z,99.993896
2022-12-06T04:43:35.779Z,99.993896
2022-12-06T04:44:45.492Z,99.993896
2022-12-06T04:45:54.173Z,99.993896
2022-12-06T04:47:02.859Z,99.993896
2022-12-06T04:48:11.480Z,99.993896
2022-12-06T04:49:20.146Z,99.993896
2022-12-06T04:50:29.818Z,99.993896
2022-12-06T04:51:38.472Z,99.993896
2022-12-06T04:52:47.146Z,99.993896
2022-12-06T04:53:56.824Z,99.993896
2022-12-06T04:55:05.469Z,99.993896
2022-12-06T04:56:13.146Z,99.993896
2022-12-06T04:57:21.801Z,99.993896
2022-12-06T04:58:30.476Z,99.993896
2022-12-06T04:59:40.123Z,99.993896
2022-12-06T05:00:47.797Z,99.993896
2022-12-06T05:01:55.464Z,99.993896
2022-12-06T05:03:05.108Z,99.993896
2022-12-06T05:04:13.841Z,99.993896
2022-12-06T05:05:22.435Z,99.993896
2022-12-06T05:06:31.070Z,99.993896
2022-12-06T05:07:40.782Z,99.993896
2022-12-06T05:08:50.427Z,99.993896
2022-12-06T05:09:58.442Z,99.993896
2022-12-06T05:11:06.756Z,99.993896
2022-12-06T05:12:16.416Z,99.993896
2022-12-06T05:13:25.109Z,99.993896
2022-12-06T05:14:34.873Z,99.993896
2022-12-06T05:15:44.488Z,99.993896
2022-12-06T05:16:53.214Z,99.993896
2022-12-06T05:18:02.907Z,99.993896
2022-12-06T05:19:10.589Z,99.993896
2022-12-06T05:20:19.281Z,99.993896
2022-12-06T05:21:28.948Z,99.993896
2022-12-06T05:22:37.602Z,99.993896
2022-12-06T05:23:47.353Z,99.993896
2022-12-06T05:24:56.105Z,99.993896
2022-12-06T05:26:04.745Z,99.993896
2022-12-06T05:27:14.421Z,99.993896
2022-12-06T05:28:22.078Z,99.993896
2022-12-06T05:29:31.757Z,99.993896
2022-12-06T05:30:41.515Z,99.993896
2022-12-06T05:31:50.218Z,99.993896
2022-12-06T05:32:58.810Z,99.993896
2022-12-06T05:34:06.467Z,99.993896
2022-12-06T05:35:15.144Z,99.993896
2022-12-06T05:36:24.828Z,99.993896
2022-12-06T05:37:32.477Z,99.993896
2022-12-06T05:38:40.144Z,99.993896
2022-12-06T05:39:50.810Z,99.993896
2022-12-06T05:41:00.622Z,99.993896
2022-12-06T05:42:10.387Z,99.993896
2022-12-06T05:43:20.024Z,99.993896
2022-12-06T05:44:28.759Z,99.993896
2022-12-06T05:45:37.508Z,99.993896
2022-12-06T05:46:46.124Z,99.993896
2022-12-06T05:47:53.830Z,99.993896
2022-12-06T05:49:03.483Z,99.993896
2022-12-06T05:50:13.152Z,99.993896
2022-12-06T05:51:22.840Z,99.993896
2022-12-06T05:52:31.481Z,99.993896
2022-12-06T05:53:42.173Z,99.993896
2022-12-06T05:54:51.182Z,99.993896
2022-12-06T05:56:01.674Z,99.993896
2022-12-06T05:57:12.326Z,99.993896
2022-12-06T05:58:20.982Z,99.993896
2022-12-06T05:59:29.676Z,99.993896
2022-12-06T06:00:39.362Z,99.993896
2022-12-06T06:01:49.055Z,99.993896
2022-12-06T06:02:58.809Z,99.993896
2022-12-06T06:04:07.353Z,99.993896
2022-12-06T06:05:17.015Z,99.993896
2022-12-06T06:06:26.684Z,99.993896
2022-12-06T06:07:34.357Z,99.993896
2022-12-06T06:08:42.986Z,99.993896
2022-12-06T06:09:51.633Z,99.993896
2022-12-06T06:11:00.310Z,99.993896
2022-12-06T06:12:12.585Z,99.993896
2022-12-06T06:13:19.604Z,99.993896
2022-12-06T06:14:28.291Z,99.993896
2022-12-06T06:15:37.969Z,99.993896
2022-12-06T06:16:46.719Z,99.993896
2022-12-06T06:17:56.429Z,99.993896
2022-12-06T06:19:06.077Z,99.993896
2022-12-06T06:20:14.762Z,99.993896
2022-12-06T06:21:23.415Z,99.993896
2022-12-06T06:22:32.115Z,99.993896
2022-12-06T06:23:40.774Z,99.993896
2022-12-06T06:24:50.435Z,99.993896
2022-12-06T06:25:58.085Z,99.993896
2022-12-06T06:27:06.740Z,99.993896
2022-12-06T06:28:16.457Z,99.993896
2022-12-06T06:29:26.110Z,99.993896
2022-12-06T06:30:34.786Z,99.993896
2022-12-06T06:31:44.502Z,99.993896
2022-12-06T06:32:54.094Z,99.993896
2022-12-06T06:34:03.855Z,99.993896
2022-12-06T06:35:12.494Z,99.993896
2022-12-06T06:36:21.153Z,99.993896
2022-12-06T06:37:31.404Z,99.993896
2022-12-06T06:38:41.076Z,99.993896
2022-12-06T06:39:49.783Z,99.993896
2022-12-06T06:40:58.440Z,99.993896
2022-12-06T06:42:07.118Z,99.993896
2022-12-06T06:43:16.792Z,99.993896
2022-12-06T06:44:26.458Z,99.993896
2022-12-06T06:45:34.217Z,99.993896
2022-12-06T06:46:43.812Z,99.993896
2022-12-06T06:47:52.464Z,99.993896
2022-12-06T06:49:02.148Z,99.993896
2022-12-06T06:50:10.834Z,99.993896
2022-12-06T06:51:20.539Z,99.993896
2022-12-06T06:52:30.222Z,99.993896
2022-12-06T06:53:38.928Z,99.993896
2022-12-06T06:54:47.597Z,99.993896
2022-12-06T06:55:57.289Z,99.993896
2022-12-06T06:57:06.991Z,99.993896
2022-12-06T06:58:16.635Z,99.993896
2022-12-06T06:59:25.327Z,99.993896
2022-12-06T07:00:34.993Z,99.993896
2022-12-06T07:01:44.707Z,99.993896
2022-12-06T07:02:53.380Z,99.993896
2022-12-06T07:04:02.005Z,99.993896
2022-12-06T07:05:11.692Z,99.993896
2022-12-06T07:06:20.375Z,99.993896
2022-12-06T07:07:30.032Z,99.993896
2022-12-06T07:08:38.842Z,99.993896
2022-12-06T07:09:47.504Z,99.993896
2022-12-06T07:10:57.188Z,99.993896
2022-12-06T07:12:04.843Z,99.993896
2022-12-06T07:13:12.512Z,99.993896
2022-12-06T07:14:22.192Z,99.993896
2022-12-06T07:15:30.874Z,99.993896
2022-12-06T07:16:40.596Z,99.993896
2022-12-06T07:17:48.243Z,99.993896
2022-12-06T07:18:56.892Z,99.993896
2022-12-06T07:20:07.590Z,99.993896
2022-12-06T07:21:16.288Z,99.993896
2022-12-06T07:22:25.081Z,99.993896
2022-12-06T07:23:33.722Z,99.993896
2022-12-06T07:24:45.521Z,99.993896
2022-12-06T07:25:52.048Z,99.993896
2022-12-06T07:27:00.727Z,99.993896
2022-12-06T07:28:10.413Z,99.993896
2022-12-06T07:29:20.093Z,99.993896
2022-12-06T07:30:28.926Z,99.993896
2022-12-06T07:31:38.516Z,99.993896
2022-12-06T07:32:48.198Z,99.993896
2022-12-06T07:33:57.860Z,99.993896
2022-12-06T07:35:06.520Z,99.993896
2022-12-06T07:36:16.178Z,99.993896
2022-12-06T07:37:24.894Z,99.993896
2022-12-06T07:38:34.621Z,99.993896
2022-12-06T07:39:44.302Z,99.993896
2022-12-06T07:41:04.262Z,99.993896
2022-12-06T07:42:04.596Z,99.993896
2022-12-06T07:43:13.930Z,99.993896
2022-12-06T07:44:22.597Z,99.993896
2022-12-06T07:45:32.398Z,99.993896
2022-12-06T07:46:42.112Z,99.993896
2022-12-06T07:47:51.868Z,99.993896
2022-12-06T07:49:00.545Z,99.993896
2022-12-06T07:50:14.483Z,99.993896
2022-12-06T07:51:20.905Z,99.993896
2022-12-06T07:52:29.595Z,99.993896
2022-12-06T07:53:39.326Z,99.993896
2022-12-06T07:54:47.982Z,99.993896
2022-12-06T07:55:57.653Z,99.993896
2022-12-06T07:57:06.326Z,99.993896
2022-12-06T07:58:15.016Z,99.993896
2022-12-06T07:59:24.682Z,99.993896
2022-12-06T08:00:32.357Z,99.993896
2022-12-06T08:01:40.160Z,99.993896
2022-12-06T08:02:49.699Z,99.993896
2022-12-06T08:03:58.383Z,99.993896
2022-12-06T08:05:08.018Z,99.993896
2022-12-06T08:06:16.703Z,99.993896
2022-12-06T08:07:25.395Z,99.993896
2022-12-06T08:08:35.106Z,99.993896
2022-12-06T08:09:43.801Z,99.993896
2022-12-06T08:10:51.447Z,99.993896
2022-12-06T08:12:00.150Z,99.993896
2022-12-06T08:13:09.799Z,99.993896
2022-12-06T08:14:18.489Z,99.993896
2022-12-06T08:15:27.150Z,99.993896
2022-12-06T08:16:35.848Z,99.993896
2022-12-06T08:17:45.545Z,99.993896
2022-12-06T08:18:53.221Z,99.993896
2022-12-06T08:20:01.252Z,99.993896
2022-12-06T08:21:10.562Z,99.993896
2022-12-06T08:22:19.220Z,99.993896
2022-12-06T08:23:33.767Z,99.993896
2022-12-06T08:24:39.543Z,99.993896
2022-12-06T08:25:49.259Z,99.993896
2022-12-06T08:26:58.910Z,99.993896
2022-12-06T08:28:06.567Z,99.993896
2022-12-06T08:29:14.244Z,99.993896
2022-12-06T08:30:23.916Z,99.993896
2022-12-06T08:31:32.624Z,99.993896
2022-12-06T08:32:42.255Z,99.993896
2022-12-06T08:33:50.945Z,99.993896
2022-12-06T08:34:59.626Z,99.993896
2022-12-06T08:36:09.288Z,99.993896
2022-12-06T08:37:17.952Z,99.835205
2022-12-06T08:38:25.673Z,99.481201
2022-12-06T08:39:35.357Z,99.066162
2022-12-06T08:40:44.089Z,97.570801
2022-12-06T08:41:52.884Z,97.467041
2022-12-06T08:43:02.445Z,96.289062
2022-12-06T08:44:11.114Z,95.874023
2022-12-06T08:45:20.820Z,94.885254
2022-12-06T08:46:29.560Z,93.786621
2022-12-06T08:47:38.230Z,94.348145
2022-12-06T08:48:47.894Z,95.178223
2022-12-06T08:49:56.567Z,95.532227
2022-12-06T08:51:05.228Z,95.739746
2022-12-06T08:52:13.906Z,96.569824
2022-12-06T08:53:22.546Z,96.820068
2022-12-06T08:54:32.209Z,97.131348
2022-12-06T08:55:39.874Z,97.174072
2022-12-06T08:56:47.522Z,97.692871
2022-12-06T08:57:57.235Z,98.156738
2022-12-06T08:59:06.884Z,98.571777
2022-12-06T09:00:16.535Z,98.718262
2022-12-06T09:01:23.258Z,99.133301
2022-12-06T09:02:31.840Z,99.54834
2022-12-06T09:03:41.530Z,99.993896
2022-12-06T09:04:50.279Z,99.993896
2022-12-06T09:05:57.866Z,99.993896
2022-12-06T09:07:11.612Z,99.993896
2022-12-06T09:08:17.195Z,99.993896
2022-12-06T09:09:25.853Z,99.993896
2022-12-06T09:10:34.507Z,99.993896
2022-12-06T09:11:43.197Z,99.993896
2022-12-06T09:12:52.854Z,99.993896
2022-12-06T09:14:00.533Z,99.993896
2022-12-06T09:15:10.220Z,99.993896
2022-12-06T09:16:19.916Z,99.993896
2022-12-06T09:17:28.546Z,99.993896
2022-12-06T09:18:37.191Z,99.993896
2022-12-06T09:19:45.853Z,99.993896
2022-12-06T09:20:54.529Z,99.993896
2022-12-06T09:22:04.202Z,99.993896
2022-12-06T09:23:11.847Z,99.993896
2022-12-06T09:24:19.528Z,99.993896
2022-12-06T09:25:29.318Z,99.993896
2022-12-06T09:26:39.001Z,99.993896
2022-12-06T09:27:48.647Z,99.993896
2022-12-06T09:28:58.314Z,99.993896
2022-12-06T09:30:07.998Z,99.993896
2022-12-06T09:31:17.693Z,99.993896
2022-12-06T09:32:25.309Z,99.993896
2022-12-06T09:33:33.976Z,99.993896
2022-12-06T09:34:43.650Z,99.993896
2022-12-06T09:35:52.331Z,99.993896
2022-12-06T09:37:00.985Z,99.993896
2022-12-06T09:38:09.695Z,99.993896
2022-12-06T09:39:19.341Z,99.993896
2022-12-06T09:40:28.021Z,99.993896
2022-12-06T09:41:36.676Z,99.993896
2022-12-06T09:42:44.328Z,99.993896
2022-12-06T09:43:54.053Z,99.993896
2022-12-06T09:45:02.728Z,99.993896
2022-12-06T09:46:11.478Z,99.993896
2022-12-06T09:47:21.051Z,99.993896
2022-12-06T09:48:29.709Z,99.993896
2022-12-06T09:49:38.387Z,99.993896
2022-12-06T09:50:47.042Z,99.993896
2022-12-06T09:51:56.707Z,99.993896
2022-12-06T09:53:04.350Z,99.993896
2022-12-06T09:54:13.004Z,99.993896
2022-12-06T09:55:22.697Z,99.993896
2022-12-06T09:56:31.347Z,99.993896
2022-12-06T09:57:40.045Z,99.993896
2022-12-06T09:58:48.687Z,99.993896
2022-12-06T09:59:57.527Z,99.993896
2022-12-06T10:01:07.028Z,99.993896
2022-12-06T10:02:14.762Z,99.993896
2022-12-06T10:03:23.335Z,99.993896
2022-12-06T10:04:33.010Z,99.993896
2022-12-06T10:05:41.665Z,99.993896
2022-12-06T10:06:51.412Z,99.993896
2022-12-06T10:08:00.208Z,99.993896
2022-12-06T10:09:09.893Z,99.993896
2022-12-06T10:10:19.457Z,99.993896
2022-12-06T10:11:27.123Z,99.993896
2022-12-06T10:12:34.798Z,99.993896
2022-12-06T10:13:44.460Z,99.993896
2022-12-06T10:14:53.109Z,99.993896
2022-12-06T10:16:02.838Z,99.993896
2022-12-06T10:17:11.435Z,99.993896
2022-12-06T10:18:21.137Z,99.993896
2022-12-06T10:19:30.777Z,99.993896
2022-12-06T10:20:39.444Z,99.993896
2022-12-06T10:21:48.102Z,99.993896
2022-12-06T10:22:57.771Z,99.993896
2022-12-06T10:24:06.460Z,99.993896
2022-12-06T10:25:16.118Z,99.993896
2022-12-06T10:26:24.772Z,99.993896
2022-12-06T10:27:34.438Z,99.993896
2022-12-06T10:28:45.084Z,99.993896
2022-12-06T10:29:54.780Z,99.993896
2022-12-06T10:31:02.508Z,99.993896
2022-12-06T10:32:12.101Z,99.993896
2022-12-06T10:33:20.777Z,99.609375
2022-12-06T10:34:29.590Z,99.505615
2022-12-06T10:35:39.113Z,99.505615
2022-12-06T10:36:47.770Z,99.816895
2022-12-06T10:37:57.423Z,99.975586
2022-12-06T10:39:06.082Z,99.713135
2022-12-06T10:40:14.746Z,99.609375
2022-12-06T10:41:24.462Z,99.505615
2022-12-06T10:42:32.098Z,99.298096
2022-12-06T10:43:41.776Z,99.505615
2022-12-06T10:44:49.432Z,98.883057
2022-12-06T10:45:59.218Z,98.364258
2022-12-06T10:47:09.861Z,98.260498
2022-12-06T10:48:17.481Z,98.156738
2022-12-06T10:49:26.141Z,98.156738
2022-12-06T10:50:34.826Z,98.260498
2022-12-06T10:51:43.467Z,98.156738
2022-12-06T10:52:54.117Z,98.260498
2022-12-06T10:54:02.797Z,98.364258
2022-12-06T10:55:11.442Z,98.260498
2022-12-06T10:56:21.112Z,98.260498
2022-12-06T10:57:30.782Z,98.260498
2022-12-06T10:58:39.457Z,98.31543
2022-12-06T10:59:49.123Z,98.21167
2022-12-06T11:00:58.832Z,98.468018
2022-12-06T11:02:07.502Z,98.156738
2022-12-06T11:03:16.137Z,97.845459
2022-12-06T11:04:24.813Z,97.741699
2022-12-06T11:05:34.504Z,98.260498
2022-12-06T11:06:42.184Z,98.052979
2022-12-06T11:07:50.900Z,98.468018
2022-12-06T11:09:00.483Z,98.779297
2022-12-06T11:10:09.184Z,98.675537
2022-12-06T11:11:17.872Z,98.571777
2022-12-06T11:12:30.880Z,98.883057
2022-12-06T11:13:35.158Z,99.194336
2022-12-06T11:14:44.827Z,99.353027
2022-12-06T11:15:52.572Z,99.194336
2022-12-06T11:17:00.189Z,99.145508
2022-12-06T11:18:09.849Z,98.779297
2022-12-06T11:19:18.500Z,98.364258
2022-12-06T11:20:28.176Z,98.468018
2022-12-06T11:21:37.857Z,98.675537
2022-12-06T11:22:47.536Z,98.779297
2022-12-06T11:23:57.190Z,98.156738
2022-12-06T11:25:05.848Z,97.741699
2022-12-06T11:26:14.512Z,97.949219
2022-12-06T11:27:24.227Z,97.637939
2022-12-06T11:28:32.878Z,97.741699
2022-12-06T11:29:41.525Z,97.741699
2022-12-06T11:30:51.193Z,97.949219
2022-12-06T11:31:59.901Z,98.00415
2022-12-06T11:33:09.534Z,98.00415
2022-12-06T11:34:18.222Z,98.21167
2022-12-06T11:35:25.894Z,98.626709
2022-12-06T11:36:35.564Z,99.041748
2022-12-06T11:37:44.699Z,98.937988
2022-12-06T11:38:53.918Z,98.937988
2022-12-06T11:40:03.729Z,98.834229
2022-12-06T11:41:13.281Z,98.937988
2022-12-06T11:42:23.981Z,99.145508
2022-12-06T11:43:31.633Z,99.145508
2022-12-06T11:44:43.615Z,99.560547
2022-12-06T11:45:51.049Z,99.926758
2022-12-06T11:46:59.826Z,99.993896
2022-12-06T11:48:09.443Z,99.993896
2022-12-06T11:49:18.127Z,99.993896
2022-12-06T11:50:26.870Z,99.993896
2022-12-06T11:51:36.534Z,99.993896
2022-12-06T11:52:46.216Z,99.993896
2022-12-06T11:53:55.928Z,99.938965
2022-12-06T11:55:04.621Z,99.01123
2022-12-06T11:56:13.285Z,98.699951
2022-12-06T11:57:23.085Z,98.596191
2022-12-06T11:58:31.648Z,98.492432
2022-12-06T11:59:40.326Z,98.596191
2022-12-06T12:00:48.994Z,98.223877
2022-12-06T12:01:57.708Z,97.912598
2022-12-06T12:03:07.382Z,97.808838
2022-12-06T12:04:15.027Z,97.705078
2022-12-06T12:05:23.686Z,97.961426
2022-12-06T12:06:33.372Z,98.272705
2022-12-06T12:07:43.212Z,98.376465
2022-12-06T12:08:52.904Z,98.791504
2022-12-06T12:10:01.592Z,98.895264
2022-12-06T12:11:10.283Z,99.102783
2022-12-06T12:12:19.976Z,99.310303
2022-12-06T12:13:28.668Z,99.517822
2022-12-06T12:14:37.346Z,99.517822
2022-12-06T12:15:48.009Z,99.102783
2022-12-06T12:16:57.745Z,98.626709
2022-12-06T12:18:07.393Z,99.041748
2022-12-06T12:19:16.150Z,99.041748
2022-12-06T12:20:25.849Z,98.419189
2022-12-06T12:21:35.542Z,98.522949
2022-12-06T12:22:44.219Z,98.730469
2022-12-06T12:23:52.884Z,98.626709
2022-12-06T12:25:18.215Z,98.730469
2022-12-06T12:26:13.265Z,98.31543
2022-12-06T12:27:27.198Z,97.900391
2022-12-06T12:28:33.558Z,98.00415
2022-12-06T12:29:42.221Z,98.00415
2022-12-06T12:30:51.963Z,98.00415
2022-12-06T12:32:00.695Z,97.589111
2022-12-06T12:33:09.323Z,97.796631
2022-12-06T12:34:18.997Z,98.00415
2022-12-06T12:35:27.670Z,98.21167
2022-12-06T12:36:36.386Z,98.419189
2022-12-06T12:37:46.055Z,98.522949
2022-12-06T12:38:54.762Z,98.626709
2022-12-06T12:40:09.117Z,98.730469
2022-12-06T12:41:15.095Z,98.834229
2022-12-06T12:42:23.774Z,98.730469
2022-12-06T12:43:33.438Z,98.419189
2022-12-06T12:44:43.089Z,98.00415
2022-12-06T12:45:51.772Z,98.21167
2022-12-06T12:47:02.405Z,98.419189
2022-12-06T12:48:12.090Z,98.419189
2022-12-06T12:49:21.792Z,98.522949
2022-12-06T12:50:29.516Z,98.31543
2022-12-06T12:51:38.226Z,98.00415
2022-12-06T12:52:48.884Z,98.21167
2022-12-06T12:53:57.587Z,98.31543
2022-12-06T12:55:07.259Z,98.21167
2022-12-06T12:56:15.928Z,98.21167
2022-12-06T12:57:25.637Z,98.419189
2022-12-06T12:58:36.235Z,98.21167
2022-12-06T12:59:44.974Z,98.10791
2022-12-06T13:00:53.706Z,98.00415
2022-12-06T13:02:03.371Z,97.796631
2022-12-06T13:03:34.720Z,97.692871
2022-12-06T13:04:21.609Z,97.589111
2022-12-06T13:05:34.901Z,97.589111
2022-12-06T13:06:38.925Z,97.589111
2022-12-06T13:07:48.616Z,97.589111